バマコ の空港の天気 - METARとTAF

バマコ・セヌー国際空港 ( GABS / BKO ) - マリ バマコ
飛行場実況気象(Metar)
観測時間05/28 22:30 GMT (05/28 22:30 UTC)
風向・風速南 4m/s
視程10km以上
天気現象
少しの雲 雲底高度 910m
気温30℃
湿度55%
気圧1012hPa
METARGABS 282230Z 17008KT 140V200 9999 FEW030 30/20 Q1012 NOSIG
過去の天気等 Google飛行場航空写真 Wunderground天気予報

過去48時間のMETAR

飛行場予報(TAF)
発表時間: 5/28 17:00 GMT (5/28 17:00 UTC)
予報対象時間: 28日18時 GMT ~ 30日0時 GMT
風向・風速西北西 3m/s
視程10km以上
少しの雲 雲底高度 910m
28日18時 GMT ~ 28日21時 GMT に 確率 40% で一時的に
天気現象
全天の4割程度の雲 雲底高度 910m
少しの積乱雲 雲底高度 1010m
TAF GABS 281700Z 2818/2924 30006KT 9999 FEW030
PROB40 TEMPO 2818/2821 TS SCT030 FEW033CB